Time;durP1;ratioP1;P1;durP2;ratioP2;P2;SDS_P1;SDS_P2;PMS_P1;PMS_P2;Temp;Humidity;BMP_temperature;BMP_pressure;BME280_temperature;BME280_humidity;BME280_pressure;Samples;Min_cycle;Max_cycle;Signal;HPM_P1;HPM_P2
2022/05/10 00:00:54;;;;;;;15.77;11.35;;;;;;;17.37;60.08;102064.09;5039214;28;20025;-49
2022/05/10 00:03:21;;;;;;;17.20;11.23;;;;;;;17.29;60.14;102065.66;5038938;28;20094;-53
2022/05/10 00:05:46;;;;;;;17.42;10.65;;;;;;;17.16;60.42;102056.72;5036224;28;20270;-49
2022/05/10 00:08:15;;;;;;;16.45;11.02;;;;;;;17.21;60.54;102059.44;5041269;28;20112;-53
2022/05/10 00:10:42;;;;;;;22.73;11.10;;;;;;;17.14;60.46;102065.34;5038543;28;20028;-52
2022/05/10 00:13:08;;;;;;;17.42;11.57;;;;;;;17.10;61.04;102051.41;5039257;28;20508;-50
2022/05/10 00:15:33;;;;;;;19.60;11.20;;;;;;;17.12;60.63;102044.53;5037420;28;20048;-53
2022/05/10 00:17:59;;;;;;;21.42;11.63;;;;;;;17.10;60.73;102043.59;5040328;28;20033;-53
2022/05/10 00:20:26;;;;;;;20.05;11.90;;;;;;;17.04;61.07;102042.63;5041225;28;20558;-52
2022/05/10 00:22:52;;;;;;;17.20;11.48;;;;;;;17.01;61.21;102042.56;5039207;28;20029;-53
2022/05/10 00:25:23;;;;;;;14.98;10.98;;;;;;;17.03;61.14;102041.75;5042680;28;20531;-52
2022/05/10 00:27:49;;;;;;;17.23;11.95;;;;;;;16.99;60.84;102039.94;5040592;28;20123;-52
2022/05/10 00:30:15;;;;;;;19.15;11.77;;;;;;;16.98;61.26;102032.97;5039936;28;20036;-53
2022/05/10 00:32:41;;;;;;;20.50;11.63;;;;;;;16.86;61.37;102027.53;5041035;28;20079;-48
2022/05/10 00:35:15;;;;;;;16.67;11.65;;;;;;;16.83;61.24;102028.34;5041059;28;20067;-53
2022/05/10 00:37:41;;;;;;;19.60;11.88;;;;;;;16.76;61.58;102030.78;5039578;28;20064;-53
2022/05/10 00:40:07;;;;;;;14.85;11.18;;;;;;;16.67;61.80;102030.53;5036891;28;20025;-46
2022/05/10 00:42:37;;;;;;;20.75;11.45;;;;;;;16.61;62.10;102026.97;5040071;28;20036;-52
2022/05/10 00:45:07;;;;;;;17.75;11.90;;;;;;;16.66;62.37;102026.22;5039411;28;20049;-51
2022/05/10 00:48:10;;;;;;;18.20;11.30;;;;;;;16.75;61.47;102029.03;5041450;28;20021;-50
2022/05/10 00:50:46;;;;;;;14.52;11.52;;;;;;;16.67;61.95;102017.56;5039195;28;20094;-50
2022/05/10 00:53:21;;;;;;;18.80;12.13;;;;;;;16.64;62.35;102020.97;5040782;28;20032;-48
2022/05/10 00:55:52;;;;;;;15.95;11.52;;;;;;;16.65;62.53;102024.47;5037890;28;20037;-50
2022/05/10 00:58:25;;;;;;;14.65;11.32;;;;;;;16.58;62.58;102010.47;5039524;28;20111;-52
2022/05/10 01:00:54;;;;;;;18.33;11.80;;;;;;;16.57;62.62;102013.91;5038497;28;20086;-53
2022/05/10 01:03:30;;;;;;;17.30;11.68;;;;;;;16.54;62.42;102013.81;5039091;28;20698;-50
2022/05/10 01:06:21;;;;;;;16.25;11.27;;;;;;;16.55;62.24;102006.06;5038805;28;20381;-53
2022/05/10 01:09:01;;;;;;;17.48;12.70;;;;;;;16.48;62.57;102006.78;5041670;28;20377;-52
2022/05/10 01:11:36;;;;;;;15.75;11.77;;;;;;;16.40;63.16;102000.56;5041085;28;20052;-53
2022/05/10 01:14:14;;;;;;;18.65;11.90;;;;;;;16.39;63.23;101995.34;5038468;28;20043;-53
2022/05/10 01:16:40;;;;;;;15.73;11.70;;;;;;;16.32;63.87;101994.31;5038618;28;20033;-52
2022/05/10 01:19:05;;;;;;;15.00;11.18;;;;;;;16.32;63.48;102002.13;5045165;28;20837;-52
2022/05/10 01:21:55;;;;;;;17.40;11.98;;;;;;;16.33;62.94;102001.25;5045135;28;20048;-48
2022/05/10 01:24:41;;;;;;;18.02;11.77;;;;;;;16.13;63.98;101998.19;5047136;28;20056;-53
2022/05/10 01:27:20;;;;;;;18.05;12.30;;;;;;;16.10;63.94;101992.94;5042156;28;20562;-51
2022/05/10 01:30:07;;;;;;;17.02;12.32;;;;;;;16.07;63.67;101991.13;5042830;28;20473;-52
2022/05/10 01:35:44;;;;;;;14.05;12.07;;;;;;;16.06;64.56;101983.31;5043824;28;20040;-52
2022/05/10 01:38:32;;;;;;;;;;;;;;;16.26;62.53;101976.88;5043897;28;20079;-53
2022/05/10 01:41:09;;;;;;;20.42;12.45;;;;;;;15.99;64.56;101971.94;5017233;28;19982;-51
2022/05/10 01:43:48;;;;;;;17.20;13.00;;;;;;;15.93;64.55;101969.19;5043194;28;20489;-53
2022/05/10 01:46:22;;;;;;;20.23;12.93;;;;;;;15.86;65.06;101967.28;5044442;28;20029;-52
2022/05/10 01:48:54;;;;;;;16.08;12.32;;;;;;;15.80;65.64;101964.56;5040071;28;20049;-53
2022/05/10 01:51:29;;;;;;;19.42;13.43;;;;;;;15.79;65.48;101957.63;5044746;28;20051;-51
2022/05/10 01:53:54;;;;;;;18.73;13.23;;;;;;;15.75;66.01;101955.78;5043569;28;20025;-49
2022/05/10 01:56:23;;;;;;;15.98;12.85;;;;;;;15.78;65.99;101953.28;5043035;28;20043;-53
2022/05/10 01:58:53;;;;;;;17.70;13.48;;;;;;;15.75;65.74;101950.59;5043387;28;20503;-53
2022/05/10 02:01:18;;;;;;;;;;;;;;;16.01;63.74;101952.06;5043520;28;20119;-53
2022/05/10 02:04:08;;;;;;;17.42;14.82;;;;;;;15.84;64.81;101950.84;5044717;28;20059;-49
2022/05/10 02:06:43;;;;;;;20.00;14.73;;;;;;;15.78;65.57;101956.75;5042782;28;20091;-50
2022/05/10 02:09:26;;;;;;;23.83;15.30;;;;;;;15.73;65.55;101953.16;5044867;28;20481;-53
2022/05/10 02:12:01;;;;;;;19.20;14.90;;;;;;;15.67;65.44;101953.00;5041507;28;20032;-53
2022/05/10 02:14:26;;;;;;;19.45;14.18;;;;;;;15.55;66.01;101947.50;5042129;28;20559;-49
2022/05/10 02:17:07;;;;;;;22.67;15.02;;;;;;;15.62;65.82;101945.94;5044641;28;20047;-53
2022/05/10 02:19:41;;;;;;;23.73;15.63;;;;;;;15.53;66.44;101936.19;5046001;28;20036;-47
2022/05/10 02:22:19;;;;;;;21.75;15.45;;;;;;;15.58;66.05;101932.00;5040554;28;20028;-50
2022/05/10 02:25:20;;;;;;;24.55;15.95;;;;;;;15.51;66.65;101925.78;5039433;28;20029;-50
2022/05/10 02:27:49;;;;;;;19.98;15.43;;;;;;;15.56;66.52;101924.19;5031452;28;20037;-49
2022/05/10 02:30:18;;;;;;;20.08;15.75;;;;;;;15.54;66.56;101918.09;5042482;28;20029;-49
2022/05/10 02:33:07;;;;;;;20.10;15.43;;;;;;;15.56;66.23;101920.72;5042636;28;20020;-44
2022/05/10 02:35:56;;;;;;;23.35;15.27;;;;;;;15.64;65.81;101915.75;5042157;28;20186;-50
2022/05/10 02:38:23;;;;;;;;;;;;;;;15.76;64.82;101905.66;5042912;28;20033;-44
2022/05/10 02:40:51;;;;;;;24.60;16.63;;;;;;;15.52;66.66;101911.97;5043729;28;19924;-44
2022/05/10 02:43:27;;;;;;;22.10;15.88;;;;;;;15.62;66.63;101912.22;5044257;28;20028;-49
2022/05/10 02:45:54;;;;;;;24.65;16.20;;;;;;;15.63;66.84;101914.00;5042701;28;20178;-43
2022/05/10 02:48:27;;;;;;;24.90;16.58;;;;;;;15.57;66.76;101905.19;5043155;28;20016;-43
2022/05/10 02:50:53;;;;;;;25.50;16.98;;;;;;;15.59;67.05;101904.34;5039094;28;20539;-44
2022/05/10 02:53:19;;;;;;;25.35;17.45;;;;;;;15.55;67.26;101901.69;5041961;28;20029;-43
2022/05/10 02:55:55;;;;;;;24.23;16.33;;;;;;;15.58;67.28;101906.06;5044448;28;20072;-43
2022/05/10 02:58:35;;;;;;;25.55;16.73;;;;;;;15.60;67.02;101901.81;5042638;28;20025;-43
2022/05/10 03:01:07;;;;;;;28.30;17.88;;;;;;;15.64;66.66;101895.88;5039507;28;20029;-43
2022/05/10 03:03:34;;;;;;;24.05;16.92;;;;;;;15.64;66.68;101901.06;5041162;28;20024;-47
2022/05/10 03:05:59;;;;;;;23.88;17.42;;;;;;;15.67;66.86;101895.09;5041322;28;20086;-45
2022/05/10 03:08:24;;;;;;;27.25;17.98;;;;;;;15.66;66.87;101898.53;5041352;28;20423;-43
2022/05/10 03:10:50;;;;;;;23.75;17.58;;;;;;;15.64;66.58;101895.00;5041930;28;20155;-42
2022/05/10 03:13:16;;;;;;;24.58;17.13;;;;;;;15.57;67.29;101891.38;5042524;28;20033;-44
2022/05/10 03:15:41;;;;;;;23.17;16.88;;;;;;;15.57;66.91;101888.78;5040140;28;20033;-46
2022/05/10 03:18:07;;;;;;;28.38;17.58;;;;;;;15.52;67.00;101883.47;5042700;28;20508;-43
2022/05/10 03:20:32;;;;;;;25.33;17.65;;;;;;;15.52;66.74;101888.66;5047332;28;20393;-52
2022/05/10 03:22:58;;;;;;;27.02;17.20;;;;;;;15.54;67.48;101884.41;5043801;28;20024;-43
2022/05/10 03:25:25;;;;;;;24.88;18.20;;;;;;;15.54;66.93;101874.03;5041762;28;20112;-46
2022/05/10 03:27:50;;;;;;;28.48;17.92;;;;;;;15.47;67.05;101882.50;5039928;28;20049;-43
2022/05/10 03:30:17;;;;;;;27.27;17.60;;;;;;;15.53;67.25;101880.06;5043616;28;20031;-43
2022/05/10 03:32:43;;;;;;;26.38;16.95;;;;;;;15.51;67.58;101873.06;5042191;28;20370;-47
2022/05/10 03:35:09;;;;;;;31.63;18.40;;;;;;;15.53;66.86;101868.78;5039400;28;20044;-45
2022/05/10 03:37:34;;;;;;;24.95;17.27;;;;;;;15.53;67.01;101861.91;5040903;28;20037;-44
2022/05/10 03:39:59;;;;;;;28.95;18.10;;;;;;;15.52;66.67;101867.03;5040718;28;20172;-44
2022/05/10 03:42:26;;;;;;;25.65;17.77;;;;;;;15.49;67.02;101864.41;5042598;28;20119;-43
2022/05/10 03:44:52;;;;;;;24.33;17.73;;;;;;;15.54;67.09;101866.25;5042290;28;20041;-49
2022/05/10 03:47:23;;;;;;;26.50;17.35;;;;;;;15.54;66.96;101863.66;5040293;28;20116;-42
2022/05/10 03:49:49;;;;;;;27.08;17.73;;;;;;;15.56;66.72;101861.09;5041369;28;20036;-46
2022/05/10 03:52:15;;;;;;;26.33;17.98;;;;;;;15.54;67.19;101855.88;5055708;28;20431;-46
2022/05/10 03:54:42;;;;;;;27.83;17.55;;;;;;;15.54;66.77;101855.88;5044926;28;20106;-46
2022/05/10 03:57:08;;;;;;;26.38;17.38;;;;;;;15.56;66.99;101854.19;5039127;28;20083;-43
2022/05/10 03:59:33;;;;;;;25.95;17.60;;;;;;;15.52;66.92;101854.97;5041504;28;20033;-44
2022/05/10 04:01:59;;;;;;;27.67;17.85;;;;;;;15.55;67.23;101855.03;5040571;28;20032;-45
2022/05/10 04:04:24;;;;;;;27.05;17.88;;;;;;;15.54;66.77;101855.00;5032273;28;20068;-44
2022/05/10 04:06:50;;;;;;;29.58;17.48;;;;;;;15.54;66.92;101853.28;5025699;28;20072;-48
2022/05/10 04:09:16;;;;;;;26.42;17.40;;;;;;;15.49;67.28;101844.53;5032018;28;20378;-44
2022/05/10 04:11:43;;;;;;;27.65;17.23;;;;;;;15.49;67.07;101844.53;5040996;28;20028;-46
2022/05/10 04:14:08;;;;;;;28.95;17.02;;;;;;;15.55;67.67;101849.84;5040482;28;20111;-44
2022/05/10 04:16:34;;;;;;;23.90;16.55;;;;;;;15.54;67.12;101849.84;5043356;28;20037;-42
2022/05/10 04:18:59;;;;;;;28.38;17.27;;;;;;;15.54;66.92;101842.94;5043071;28;20057;-46
2022/05/10 04:21:25;;;;;;;29.35;17.23;;;;;;;15.52;67.35;101843.72;5060421;28;20036;-43
2022/05/10 04:23:51;;;;;;;30.15;16.70;;;;;;;15.57;67.53;101847.28;5042332;28;20033;-45
2022/05/10 04:26:16;;;;;;;29.17;16.50;;;;;;;15.56;67.08;101837.78;5036156;28;20466;-44
2022/05/10 04:28:43;;;;;;;24.73;15.93;;;;;;;15.61;67.40;101846.53;5039958;28;20025;-46
2022/05/10 04:31:09;;;;;;;24.48;16.17;;;;;;;15.55;67.40;101842.09;5043814;28;20048;-42
2022/05/10 04:33:35;;;;;;;24.58;16.88;;;;;;;15.53;67.34;101836.00;5043745;28;20400;-43
2022/05/10 04:36:00;;;;;;;24.30;16.63;;;;;;;15.54;67.52;101842.94;5047268;28;20033;-47
2022/05/10 04:38:26;;;;;;;29.48;17.13;;;;;;;15.58;67.36;101833.47;5044094;28;20051;-44
2022/05/10 04:43:38;;;;;;;25.35;16.98;;;;;;;15.59;67.30;101832.63;5052213;28;20094;-42
2022/05/10 04:46:03;;;;;;;24.33;17.40;;;;;;;15.61;67.15;101835.28;5041830;28;20392;-43
2022/05/10 04:48:29;;;;;;;24.90;16.92;;;;;;;15.60;67.95;101836.13;5040272;28;20021;-47
2022/05/10 04:50:54;;;;;;;25.13;17.52;;;;;;;15.63;67.45;101831.03;5038338;28;20029;-44
2022/05/10 04:53:20;;;;;;;27.40;18.05;;;;;;;15.67;67.24;101833.75;5044756;28;20366;-47
2022/05/10 04:55:46;;;;;;;26.05;17.48;;;;;;;15.65;67.17;101829.34;5047240;28;20469;-45
2022/05/10 04:58:13;;;;;;;28.48;17.52;;;;;;;15.70;67.25;101838.09;5046357;28;20123;-44
2022/05/10 05:00:39;;;;;;;25.38;16.90;;;;;;;15.71;67.45;101826.88;5045585;28;20773;-43
2022/05/10 05:03:04;;;;;;;22.23;16.60;;;;;;;15.73;67.47;101833.00;5041571;28;20041;-44
2022/05/10 05:05:29;;;;;;;24.90;16.20;;;;;;;15.77;66.52;101830.53;5046636;28;20043;-43
2022/05/10 05:07:55;;;;;;;24.63;16.85;;;;;;;15.75;66.86;101829.59;5042022;28;20058;-42
2022/05/10 05:10:20;;;;;;;26.90;17.77;;;;;;;15.80;66.47;101835.75;5043694;28;20029;-43
2022/05/10 05:12:46;;;;;;;23.90;15.77;;;;;;;15.81;66.38;101839.22;5045520;28;20036;-46
2022/05/10 05:15:12;;;;;;;23.10;15.73;;;;;;;15.83;66.25;101832.34;5048134;28;20033;-44
2022/05/10 05:17:38;;;;;;;24.70;15.90;;;;;;;15.86;66.65;101827.25;5045391;28;20070;-45
2022/05/10 05:20:04;;;;;;;27.08;16.70;;;;;;;15.91;66.42;101829.94;5040611;28;20037;-47
2022/05/10 05:22:30;;;;;;;25.65;16.27;;;;;;;15.91;66.06;101836.00;5048614;28;20087;-44
2022/05/10 05:24:56;;;;;;;28.55;16.08;;;;;;;15.93;66.42;101831.72;5047269;28;20067;-44
2022/05/10 05:27:22;;;;;;;27.45;16.20;;;;;;;15.98;65.72;101835.28;5045877;28;20041;-46
2022/05/10 05:29:47;;;;;;;28.17;16.15;;;;;;;16.00;65.77;101836.19;5048891;28;20162;-44
2022/05/10 05:32:15;;;;;;;28.38;16.55;;;;;;;16.00;65.52;101837.91;5061785;28;20028;-46
2022/05/10 05:34:40;;;;;;;31.00;16.95;;;;;;;16.06;66.01;101833.72;5044539;28;20033;-47
2022/05/10 05:39:50;;;;;;;33.05;16.02;;;;;;;16.11;66.03;101832.94;5041689;28;20159;-43
2022/05/10 05:42:17;;;;;;;24.02;15.93;;;;;;;16.17;65.45;101833.06;5039839;28;20521;-44
2022/05/10 05:44:43;;;;;;;23.13;16.17;;;;;;;16.19;65.73;101826.19;5042502;28;20058;-47
2022/05/10 05:47:08;;;;;;;27.10;15.73;;;;;;;16.22;65.64;101827.13;5041346;28;20412;-47
2022/05/10 05:49:34;;;;;;;25.23;16.05;;;;;;;16.26;65.64;101826.38;5041855;28;20036;-45
2022/05/10 05:52:00;;;;;;;28.33;15.80;;;;;;;16.31;65.46;101824.72;5043030;28;20663;-44
2022/05/10 05:54:26;;;;;;;29.83;16.02;;;;;;;16.34;65.90;101824.78;5042913;28;20385;-47
2022/05/10 05:57:03;;;;;;;26.95;16.13;;;;;;;16.42;65.71;101821.47;5040739;28;20090;-46
2022/05/10 05:59:29;;;;;;;28.25;15.07;;;;;;;16.45;65.71;101806.84;5044825;28;20029;-45
2022/05/10 06:01:54;;;;;;;23.63;15.20;;;;;;;16.51;65.93;101803.47;5048188;28;20017;-46
2022/05/10 06:04:20;;;;;;;26.45;13.93;;;;;;;16.55;65.89;101806.13;5044571;28;20055;-45
2022/05/10 06:06:46;;;;;;;25.40;14.27;;;;;;;16.59;65.92;101802.75;5047499;28;20108;-43
2022/05/10 06:09:11;;;;;;;21.88;13.07;;;;;;;16.65;65.85;101803.72;5045488;28;21279;-44
2022/05/10 06:11:36;;;;;;;24.42;13.77;;;;;;;16.70;65.57;101813.38;5044279;28;20037;-46
2022/05/10 06:14:02;;;;;;;19.75;13.48;;;;;;;16.75;65.25;101813.47;5060053;28;20041;-44
2022/05/10 06:16:28;;;;;;;20.50;12.82;;;;;;;16.80;65.30;101819.59;5044017;28;20033;-44
2022/05/10 06:18:54;;;;;;;22.02;12.90;;;;;;;16.86;65.25;101812.78;5045450;28;20413;-43
2022/05/10 06:21:20;;;;;;;24.58;13.07;;;;;;;16.93;65.54;101810.28;5049443;28;20622;-46
2022/05/10 06:23:45;;;;;;;16.92;12.30;;;;;;;17.00;65.01;101812.16;5046640;28;20041;-44
2022/05/10 06:26:11;;;;;;;17.25;12.60;;;;;;;17.06;65.03;101807.06;5047051;28;20029;-44
2022/05/10 06:28:37;;;;;;;20.95;13.02;;;;;;;17.11;65.49;101814.09;5047776;28;20241;-45
2022/05/10 06:31:05;;;;;;;17.55;11.95;;;;;;;17.16;65.13;101809.81;5051154;28;20025;-44
2022/05/10 06:33:31;;;;;;;17.00;11.60;;;;;;;17.21;65.15;101812.50;5050466;28;20427;-43
2022/05/10 06:35:56;;;;;;;17.33;10.98;;;;;;;17.27;64.72;101809.13;5049441;28;20111;-44
2022/05/10 06:38:27;;;;;;;15.75;11.25;;;;;;;17.31;64.48;101796.22;5049295;28;20081;-44
2022/05/10 06:40:57;;;;;;;16.40;11.35;;;;;;;17.36;64.98;101793.69;5049608;28;20166;-44
2022/05/10 06:43:23;;;;;;;22.95;10.20;;;;;;;17.41;64.73;101800.72;5049814;28;20033;-47
2022/05/10 06:45:49;;;;;;;16.67;10.77;;;;;;;17.47;64.35;101805.09;5050516;28;20044;-45
2022/05/10 06:48:15;;;;;;;16.75;10.45;;;;;;;17.53;64.32;101805.19;5050362;28;20040;-45
2022/05/10 06:50:42;;;;;;;15.07;10.98;;;;;;;17.61;63.96;101798.38;5042327;28;20405;-45
2022/05/10 06:53:08;;;;;;;20.33;10.63;;;;;;;17.70;64.10;101801.09;5045829;28;20481;-43
2022/05/10 06:55:36;;;;;;;13.40;10.10;;;;;;;17.79;64.04;101799.53;5044099;28;20044;-44
2022/05/10 06:58:02;;;;;;;18.45;10.38;;;;;;;17.88;63.74;101792.69;5044902;28;20120;-44
2022/05/10 07:00:28;;;;;;;19.35;10.50;;;;;;;17.95;63.36;101788.44;5045814;28;20036;-43
2022/05/10 07:02:55;;;;;;;14.95;9.13;;;;;;;18.02;62.89;101785.09;5046759;28;20024;-46
2022/05/10 07:05:21;;;;;;;15.45;10.10;;;;;;;18.07;62.82;101791.19;5045537;28;20060;-44
2022/05/10 07:07:46;;;;;;;14.25;9.52;;;;;;;18.14;62.34;101780.03;5044791;28;20051;-44
2022/05/10 07:10:12;;;;;;;14.80;9.07;;;;;;;18.22;62.43;101774.91;5047905;28;20041;-44
2022/05/10 07:12:40;;;;;;;13.40;9.15;;;;;;;18.33;61.96;101777.63;5046468;28;20041;-47
2022/05/10 07:15:08;;;;;;;13.65;8.85;;;;;;;18.48;61.62;101775.16;5043289;28;20033;-43
2022/05/10 07:17:34;;;;;;;14.93;8.55;;;;;;;18.64;61.57;101773.59;5048790;28;20115;-45
2022/05/10 07:19:59;;;;;;;12.52;8.50;;;;;;;18.72;61.58;101767.59;5047945;28;20116;-48
2022/05/10 07:22:25;;;;;;;15.27;7.90;;;;;;;18.84;60.99;101758.16;5042565;28;20036;-44
2022/05/10 07:24:51;;;;;;;14.00;8.02;;;;;;;19.07;60.79;101764.44;5043839;28;20033;-44
2022/05/10 07:27:17;;;;;;;10.57;7.18;;;;;;;19.23;59.92;101762.78;5043649;28;20554;-51
2022/05/10 07:29:43;;;;;;;9.63;6.85;;;;;;;19.35;59.46;101768.06;5041901;28;20033;-46
2022/05/10 07:32:09;;;;;;;13.75;6.90;;;;;;;19.47;60.58;101762.06;5045765;28;20031;-44
2022/05/10 07:34:34;;;;;;;11.63;6.35;;;;;;;19.59;59.17;101762.16;5047340;28;20037;-44
2022/05/10 07:36:59;;;;;;;10.48;6.40;;;;;;;19.60;58.41;101750.88;5042426;28;20025;-44
2022/05/10 07:39:26;;;;;;;14.50;6.93;;;;;;;19.71;58.52;101757.00;5048658;28;20028;-46
2022/05/10 07:41:54;;;;;;;14.95;6.55;;;;;;;19.71;59.30;101754.41;5045591;28;20442;-43
2022/05/10 07:44:21;;;;;;;10.55;6.72;;;;;;;19.71;58.18;101759.63;5044160;28;20397;-45
2022/05/10 07:46:46;;;;;;;10.00;6.32;;;;;;;19.70;57.63;101757.88;5048508;28;20505;-48
2022/05/10 07:49:11;;;;;;;15.45;6.22;;;;;;;19.69;57.10;101761.34;5047201;28;20049;-49
2022/05/10 07:51:37;;;;;;;9.57;6.25;;;;;;;19.74;58.53;101754.44;5042263;28;20554;-43
2022/05/10 07:54:03;;;;;;;12.70;6.40;;;;;;;19.72;58.41;101748.34;5047497;28;20035;-44
2022/05/10 07:56:28;;;;;;;11.02;6.10;;;;;;;19.78;58.10;101755.31;5047689;28;20040;-45
2022/05/10 07:58:55;;;;;;;10.68;6.22;;;;;;;19.77;57.92;101748.34;5045104;28;20036;-46
2022/05/10 08:01:21;;;;;;;9.30;5.85;;;;;;;19.78;57.19;101748.38;5044988;28;20063;-44
2022/05/10 08:03:46;;;;;;;10.23;6.18;;;;;;;19.76;57.31;101747.47;5048120;28;20039;-47
2022/05/10 08:06:12;;;;;;;10.20;6.20;;;;;;;19.77;57.38;101748.34;5047925;28;20465;-47
2022/05/10 08:08:37;;;;;;;8.75;6.15;;;;;;;19.79;58.08;101751.84;5043922;28;20029;-45
2022/05/10 08:11:04;;;;;;;12.65;6.10;;;;;;;19.83;57.45;101745.75;5046305;28;20068;-44
2022/05/10 08:13:31;;;;;;;12.77;6.13;;;;;;;19.83;57.99;101748.34;5046710;28;20037;-44
2022/05/10 08:15:57;;;;;;;8.30;5.57;;;;;;;19.88;57.26;101753.59;5045847;28;20036;-44
2022/05/10 08:18:25;;;;;;;10.52;6.00;;;;;;;19.91;58.61;101751.03;5044854;28;20102;-45
2022/05/10 08:20:52;;;;;;;10.93;6.13;;;;;;;19.90;57.18;101751.88;5048009;28;20500;-44
2022/05/10 08:23:24;;;;;;;11.13;5.82;;;;;;;19.92;56.94;101755.38;5046375;28;20480;-48
2022/05/10 08:25:51;;;;;;;10.30;5.88;;;;;;;19.92;57.55;101757.97;5045540;28;20031;-44
2022/05/10 08:28:16;;;;;;;11.20;5.32;;;;;;;19.90;58.18;101742.31;5047466;28;20615;-48
2022/05/10 08:30:46;;;;;;;13.73;5.68;;;;;;;19.92;58.60;101737.09;5046948;28;20029;-46
2022/05/10 08:33:12;;;;;;;8.25;5.25;;;;;;;19.92;57.99;101744.94;5046932;28;20409;-44
2022/05/10 08:35:37;;;;;;;11.40;5.85;;;;;;;19.90;57.97;101734.50;5047124;28;20052;-45
2022/05/10 08:38:03;;;;;;;7.13;5.50;;;;;;;19.92;57.33;101731.88;5048911;28;20493;-46
2022/05/10 08:40:32;;;;;;;9.13;5.50;;;;;;;19.92;57.14;101726.66;5048560;28;20037;-47
2022/05/10 08:43:05;;;;;;;8.82;5.47;;;;;;;19.95;56.72;101719.69;5047809;28;20400;-46
2022/05/10 08:45:37;;;;;;;7.50;4.97;;;;;;;19.99;56.64;101731.03;5045625;28;20033;-47
2022/05/10 08:48:03;;;;;;;10.25;5.00;;;;;;;20.01;56.46;101726.66;5045547;28;20040;-49
2022/05/10 08:50:28;;;;;;;9.32;5.22;;;;;;;20.04;55.73;101724.94;5044490;28;20033;-45
2022/05/10 08:52:54;;;;;;;9.07;5.13;;;;;;;20.09;56.04;101725.84;5043864;28;20033;-44
2022/05/10 08:55:27;;;;;;;7.50;4.97;;;;;;;20.10;56.45;101718.88;5041324;28;20033;-43
2022/05/10 08:58:03;;;;;;;7.93;4.70;;;;;;;20.21;56.57;101719.78;5046495;28;20029;-49
2022/05/10 09:00:47;;;;;;;10.40;4.75;;;;;;;20.26;55.31;101731.09;5045769;28;20497;-45
2022/05/10 09:03:22;;;;;;;8.40;4.70;;;;;;;20.34;55.17;101721.53;5041489;28;20017;-47
2022/05/10 09:05:47;;;;;;;9.35;4.50;;;;;;;20.40;54.98;101723.28;5046746;28;20044;-44
2022/05/10 09:08:28;;;;;;;7.72;4.40;;;;;;;20.46;54.91;101719.84;5050855;28;20032;-50
2022/05/10 09:11:03;;;;;;;9.52;5.40;;;;;;;20.48;54.77;101718.09;5044646;28;20409;-48
2022/05/10 09:13:29;;;;;;;7.72;4.75;;;;;;;20.55;53.86;101712.88;5045055;28;20017;-44
2022/05/10 09:15:59;;;;;;;8.05;5.22;;;;;;;20.58;53.59;101696.34;5044675;28;20042;-44
2022/05/10 09:18:24;;;;;;;10.77;4.78;;;;;;;20.69;54.17;101709.38;5045076;28;20782;-44
2022/05/10 09:21:00;;;;;;;6.18;4.45;;;;;;;20.78;54.38;101699.81;5047521;28;20043;-44
2022/05/10 09:23:35;;;;;;;10.43;4.75;;;;;;;20.93;52.57;101696.31;5045302;28;20028;-45
2022/05/10 09:26:01;;;;;;;7.68;4.97;;;;;;;21.01;52.50;101702.41;5045871;28;20531;-47
2022/05/10 09:28:34;;;;;;;7.90;4.60;;;;;;;21.06;52.85;101707.63;5047954;28;20124;-48
2022/05/10 09:35:00;;;;;;;;;;;;;;;21.11;52.99;101704.13;5050028;28;20044;-44
2022/05/10 09:37:14;;;;;;;9.52;5.15;;;;;;;21.18;51.92;101689.28;5046032;28;19924;-46
2022/05/10 09:39:47;;;;;;;10.20;4.93;;;;;;;21.24;51.86;101698.88;5047168;28;20017;-45
2022/05/10 09:42:35;;;;;;;6.72;4.78;;;;;;;21.28;51.74;101697.97;5047825;28;20025;-45
2022/05/10 09:45:16;;;;;;;7.90;4.53;;;;;;;21.31;52.48;101693.63;5048083;28;20397;-44
2022/05/10 09:48:08;;;;;;;6.70;4.85;;;;;;;21.36;52.28;101691.00;5047206;28;20044;-46
2022/05/10 09:50:36;;;;;;;10.13;5.25;;;;;;;21.39;51.53;101689.25;5049045;28;20071;-45
2022/05/10 09:53:17;;;;;;;10.20;5.30;;;;;;;21.44;51.55;101681.38;5045209;28;20025;-44
2022/05/10 09:56:04;;;;;;;10.93;4.88;;;;;;;21.56;51.68;101680.47;5060419;28;20059;-45
2022/05/10 09:58:34;;;;;;;10.82;5.18;;;;;;;21.64;50.48;101679.53;5048378;28;20047;-45
2022/05/10 10:01:04;;;;;;;8.82;5.60;;;;;;;21.73;50.65;101681.25;5062256;28;20029;-47
2022/05/10 10:03:37;;;;;;;8.98;4.75;;;;;;;21.88;51.31;101670.69;5053586;28;20032;-46
2022/05/10 10:06:24;;;;;;;8.60;5.13;;;;;;;22.07;51.03;101670.56;5046717;28;20041;-46
2022/05/10 10:08:51;;;;;;;9.35;4.60;;;;;;;22.33;49.41;101673.06;5047031;28;20036;-48
2022/05/10 10:11:23;;;;;;;9.32;4.60;;;;;;;22.46;49.15;101666.84;5046036;28;20445;-44
2022/05/10 10:14:00;;;;;;;7.88;4.72;;;;;;;22.67;50.06;101668.38;5049016;28;20032;-44
2022/05/10 10:16:35;;;;;;;7.95;4.72;;;;;;;22.83;48.95;101659.50;5047559;28;20593;-48
2022/05/10 10:19:12;;;;;;;8.65;4.38;;;;;;;23.06;49.18;101658.44;5046467;28;20021;-45
2022/05/10 10:21:41;;;;;;;9.30;4.22;;;;;;;23.16;48.98;101660.03;5048385;28;20438;-45
2022/05/10 10:24:06;;;;;;;7.30;4.45;;;;;;;23.18;47.98;101653.06;5048820;28;20040;-47
2022/05/10 10:26:45;;;;;;;11.32;4.63;;;;;;;23.27;47.83;101652.91;5042057;28;20061;-48
2022/05/10 10:29:17;;;;;;;8.00;4.38;;;;;;;23.37;47.02;101651.94;5046233;28;20472;-47
2022/05/10 10:31:54;;;;;;;11.48;4.10;;;;;;;23.47;46.16;101650.03;5048394;28;20039;-50
2022/05/10 10:34:25;;;;;;;8.88;4.18;;;;;;;23.53;45.60;101644.72;5049934;28;20029;-46
2022/05/10 10:36:59;;;;;;;13.48;4.35;;;;;;;23.66;45.17;101642.81;5046199;28;20032;-45
2022/05/10 10:39:32;;;;;;;6.95;4.03;;;;;;;23.79;44.27;101658.41;5048567;28;20498;-44
2022/05/10 10:42:39;;;;;;;10.38;3.70;;;;;;;23.86;44.58;101653.06;5047721;28;20025;-49
2022/05/10 10:45:11;;;;;;;10.63;3.78;;;;;;;23.91;43.76;101641.59;5046466;28;20060;-48
2022/05/10 10:47:54;;;;;;;9.10;4.03;;;;;;;23.87;43.94;101644.28;5048309;28;20027;-45
2022/05/10 10:50:20;;;;;;;6.63;3.47;;;;;;;23.79;44.47;101647.03;5047897;28;20044;-46
2022/05/10 10:52:45;;;;;;;11.40;3.65;;;;;;;23.76;44.65;101641.81;5046525;28;20075;-47
2022/05/10 10:55:11;;;;;;;7.07;3.88;;;;;;;23.93;44.88;101634.56;5050987;28;20378;-54
2022/05/10 10:58:04;;;;;;;10.70;3.97;;;;;;;23.99;44.71;101631.84;5045500;28;20033;-45
2022/05/10 11:00:55;;;;;;;6.78;4.03;;;;;;;24.01;45.19;101632.69;5050280;28;20035;-45
2022/05/10 11:03:34;;;;;;;8.77;4.07;;;;;;;23.99;44.35;101641.47;5043344;28;20043;-45
2022/05/10 11:06:18;;;;;;;;;;;;;;;24.00;44.19;101625.69;5049145;28;20033;-45
2022/05/10 11:09:17;;;;;;;10.93;4.35;;;;;;;23.86;43.75;101627.66;5049126;28;19919;-46
2022/05/10 11:11:48;;;;;;;11.23;4.40;;;;;;;23.79;44.30;101621.63;5050572;28;20518;-46
2022/05/10 11:14:29;;;;;;;7.53;3.88;;;;;;;23.79;44.17;101623.41;5049511;28;20028;-48
2022/05/10 11:17:10;;;;;;;7.93;4.05;;;;;;;23.96;44.25;101618.75;5049783;28;20396;-46
2022/05/10 11:20:11;;;;;;;10.90;4.60;;;;;;;24.24;44.36;101613.06;5050051;28;20096;-45
2022/05/10 11:22:41;;;;;;;8.57;4.15;;;;;;;24.37;43.54;101614.59;5039363;28;20045;-48
2022/05/10 11:25:13;;;;;;;10.95;4.43;;;;;;;24.37;43.44;101619.00;5049798;28;20108;-44
2022/05/10 11:28:21;;;;;;;7.20;4.43;;;;;;;24.28;43.75;101606.88;5046264;28;20056;-46
2022/05/10 11:31:10;;;;;;;8.98;4.03;;;;;;;24.18;43.91;101600.88;5044576;28;20025;-46
2022/05/10 11:33:44;;;;;;;9.43;4.18;;;;;;;24.14;44.82;101607.06;5048255;28;20041;-46
2022/05/10 11:36:36;;;;;;;7.82;4.63;;;;;;;24.12;44.05;101606.25;5048600;28;20032;-47
2022/05/10 11:39:23;;;;;;;5.70;4.18;;;;;;;24.12;43.27;101600.97;5047001;28;20491;-49
2022/05/10 11:42:19;;;;;;;6.88;3.85;;;;;;;24.15;43.83;101593.06;5045390;28;20091;-46